Strona główna
METAR-TAF:

METAR-TAF

Lotnisko :

Port lotniczy Fargo-Hector

Fargo, Dakota Północna, Stany Zjednoczone

Szerokość geograficzna: 46-55-31N, Długość geograficzna: 096-48-40W, wysokość: 274 m

Aktualna obserwacja pogody

Raport powstał 53 minut temu, godzina 15:53 UTC
Wiatr 4 kt od południe
Temperatura -12°C
Wilgotność 100%
Ciśnienie 1027 hPa
Widzialność: 16.1 km
Przerywane chmury na wysokości 9000 ft

METAR: KFAR 061553Z 17004KT 10SM BKN090 M12/M12 A3032 RMK AO2 SLP289 T11171122

czas: 10:46 (16:46 UTC)

Prognoza

Raport powstał 51 minut temu, godzina 15:55 UTC
Prognoza ważna od 06 godzina 16 UTC do 07 godzina 12 UTC
Wiatr 6 kt z kierunków zmiennych
Widzialność: 10 km
Rozproszone chmury na wysokości 2000 ft
Od 06 godzina 1700 UTC
Wiatr 8 kt od południe
Widzialność: 10 km
Przerywane chmury na wysokości 2000 ft
Od 07 godzina 0400 UTC
Wiatr 8 kt od południe
Widzialność: 10 km
Zachmurzenie całkowite na wysokości 900 ft

TAF: KFAR 061555Z 0616/0712 VRB06KT P6SM SCT020 FM061700 18008KT P6SM BKN020 FM070400 17008KT P6SM OVC009

Obserwacja i prognoza pogody dla ponad 4000 lotnisk (raport METAR i TAF).

Dostępne stacje oznaczono żółtymi i czerwonymi punktami na mapie.

Najedź kursorem aby zobaczyć nazwę stacji.

Kliknij aby zobaczyć obserwacje i prognozy pogody.

Aby zmienić mapę: kliknij na zielony przycisk z czarnym krzyżykiem, aby powiększyć; na zielony przycisk z myślnikiem, aby pomniejszyć; na zielone strzałki, aby przejść do map sąsiednich.


METAR-TAF: